createdAt,value
2018-02-17T00:00:25.507Z,1021.43
2018-02-17T00:01:25.495Z,1021.48
2018-02-17T00:02:25.485Z,1021.45
2018-02-17T00:03:25.473Z,1021.41
2018-02-17T00:04:25.463Z,1021.48
2018-02-17T00:05:25.452Z,1021.50
2018-02-17T00:06:25.442Z,1021.48
2018-02-17T00:07:25.435Z,1021.47
2018-02-17T00:08:25.425Z,1021.45
2018-02-17T00:09:25.418Z,1021.42
2018-02-17T00:10:25.403Z,1021.44
2018-02-17T00:11:25.392Z,1021.45
2018-02-17T00:12:25.381Z,1021.46
2018-02-17T00:13:25.371Z,1021.42
2018-02-17T00:14:25.361Z,1021.48
2018-02-17T00:15:25.344Z,1021.45
2018-02-17T00:16:25.333Z,1021.42
2018-02-17T00:17:25.323Z,1021.42
2018-02-17T00:18:25.332Z,1021.46
2018-02-17T00:19:25.308Z,1021.46
2018-02-17T00:20:25.294Z,1021.45
2018-02-17T00:21:25.284Z,1021.37
2018-02-17T00:22:25.274Z,1021.41
2018-02-17T00:23:25.257Z,1021.38
2018-02-17T00:24:25.246Z,1021.37
2018-02-17T00:25:25.236Z,1021.31
2018-02-17T00:26:25.224Z,1021.28
2018-02-17T00:27:25.213Z,1021.23
2018-02-17T00:28:25.203Z,1021.21
2018-02-17T00:29:25.194Z,1021.21
2018-02-17T00:30:25.181Z,1021.21
2018-02-17T00:31:25.174Z,1021.14
2018-02-17T00:32:25.163Z,1021.14
2018-02-17T00:33:25.152Z,1021.14
2018-02-17T00:34:25.142Z,1021.17
2018-02-17T00:35:25.130Z,1021.11
2018-02-17T00:36:25.120Z,1021.02
2018-02-17T00:37:25.110Z,1021.04
2018-02-17T00:38:25.098Z,1021.00
2018-02-17T00:39:25.082Z,1020.97
2018-02-17T00:40:25.118Z,1020.89
2018-02-17T00:41:25.060Z,1020.89
2018-02-17T00:42:25.050Z,1020.91
2018-02-17T00:43:25.039Z,1020.85
2018-02-17T00:44:25.028Z,1020.76
2018-02-17T00:45:25.017Z,1020.75
2018-02-17T00:46:25.006Z,1020.75
2018-02-17T00:47:24.998Z,1020.77
2018-02-17T00:48:24.988Z,1020.72
2018-02-17T00:49:24.978Z,1020.77
2018-02-17T00:50:24.966Z,1020.75
2018-02-17T00:51:24.956Z,1020.76
2018-02-17T00:52:24.943Z,1020.75
2018-02-17T00:53:24.934Z,1020.78
2018-02-17T00:54:24.922Z,1020.77
2018-02-17T00:55:24.905Z,1020.75
2018-02-17T00:56:24.895Z,1020.77
2018-02-17T00:57:24.884Z,1020.76
2018-02-17T00:58:24.873Z,1020.74
2018-02-17T00:59:24.861Z,1020.75
2018-02-17T01:00:24.850Z,1020.72
2018-02-17T01:01:24.838Z,1020.69
2018-02-17T01:02:24.828Z,1020.66
2018-02-17T01:03:24.820Z,1020.66
2018-02-17T01:04:24.809Z,1020.63
2018-02-17T01:05:24.798Z,1020.63
2018-02-17T01:06:24.788Z,1020.61
2018-02-17T01:07:24.776Z,1020.62
2018-02-17T01:08:24.768Z,1020.58
2018-02-17T01:09:24.754Z,1020.56
2018-02-17T01:10:24.742Z,1020.57
2018-02-17T01:11:24.727Z,1020.56
2018-02-17T01:12:24.715Z,1020.50
2018-02-17T01:13:24.705Z,1020.50
2018-02-17T01:14:24.694Z,1020.50
2018-02-17T01:15:24.682Z,1020.51
2018-02-17T01:16:24.670Z,1020.54
2018-02-17T01:17:24.660Z,1020.48
2018-02-17T01:18:24.649Z,1020.49
2018-02-17T01:19:24.641Z,1020.41
2018-02-17T01:20:24.630Z,1020.42
2018-02-17T01:21:24.619Z,1020.36
2018-02-17T01:22:24.607Z,1020.32
2018-02-17T01:23:24.591Z,1020.31
2018-02-17T01:24:24.580Z,1020.27
2018-02-17T01:25:24.569Z,1020.28
2018-02-17T01:26:24.558Z,1020.34
2018-02-17T01:27:24.550Z,1020.32
2018-02-17T01:28:24.539Z,1020.30
2018-02-17T01:29:24.528Z,1020.30
2018-02-17T01:30:24.516Z,1020.28
2018-02-17T01:31:24.504Z,1020.26
2018-02-17T01:32:24.497Z,1020.23
2018-02-17T01:33:24.482Z,1020.23
2018-02-17T01:34:24.471Z,1020.23
2018-02-17T01:35:24.455Z,1020.26
2018-02-17T01:36:24.443Z,1020.30
2018-02-17T01:37:24.433Z,1020.28
2018-02-17T01:38:24.421Z,1020.32
2018-02-17T01:39:24.410Z,1020.27
2018-02-17T01:40:24.397Z,1020.32
2018-02-17T01:41:24.386Z,1020.26
2018-02-17T01:42:24.375Z,1020.21
2018-02-17T01:43:24.369Z,1020.21
2018-02-17T01:44:24.356Z,1020.27
2018-02-17T01:45:24.344Z,1020.23
2018-02-17T01:46:24.333Z,1020.22
2018-02-17T01:47:24.321Z,1020.16
2018-02-17T01:48:24.309Z,1020.31
2018-02-17T01:49:24.298Z,1020.26
2018-02-17T01:50:24.287Z,1020.23
2018-02-17T01:51:24.271Z,1020.23
2018-02-17T01:52:24.258Z,1020.26
2018-02-17T01:53:24.248Z,1020.25
2018-02-17T01:54:24.237Z,1020.14
2018-02-17T01:55:24.224Z,1020.21
2018-02-17T01:56:24.212Z,1020.17
2018-02-17T01:57:24.202Z,1020.25
2018-02-17T01:58:24.190Z,1020.27
2018-02-17T01:59:24.182Z,1020.35
2018-02-17T02:00:24.171Z,1020.29
2018-02-17T02:01:24.160Z,1020.30
2018-02-17T02:02:24.149Z,1020.35
2018-02-17T02:03:24.135Z,1020.28
2018-02-17T02:04:24.126Z,1020.32
2018-02-17T02:05:24.114Z,1020.28
2018-02-17T02:06:24.102Z,1020.34
2018-02-17T02:07:24.086Z,1020.38
2018-02-17T02:08:24.075Z,1020.31
2018-02-17T02:09:24.067Z,1020.23
2018-02-17T02:10:24.053Z,1020.29
2018-02-17T02:11:24.040Z,1020.35
2018-02-17T02:12:24.029Z,1020.26
2018-02-17T02:13:24.019Z,1020.37
2018-02-17T02:14:24.007Z,1020.36
2018-02-17T02:15:23.999Z,1020.32
2018-02-17T02:16:23.988Z,1020.34
2018-02-17T02:17:23.976Z,1020.31
2018-02-17T02:18:23.965Z,1020.33
2018-02-17T02:19:23.953Z,1020.26
2018-02-17T02:20:23.944Z,1020.28
2018-02-17T02:21:23.931Z,1020.23
2018-02-17T02:22:23.920Z,1020.29
2018-02-17T02:23:23.903Z,1020.27
2018-02-17T02:24:23.895Z,1020.23
2018-02-17T02:25:23.880Z,1020.19
2018-02-17T02:26:23.869Z,1020.17
2018-02-17T02:27:23.861Z,1020.12
2018-02-17T02:28:23.851Z,1020.06
2018-02-17T02:29:23.839Z,1020.04
2018-02-17T02:30:23.829Z,1020.02
2018-02-17T02:31:23.812Z,1020.03
2018-02-17T02:32:23.801Z,1020.02
2018-02-17T02:33:23.790Z,1020.02
2018-02-17T02:34:23.780Z,1020.08
2018-02-17T02:35:23.766Z,1020.16
2018-02-17T02:36:23.755Z,1020.12
2018-02-17T02:37:23.744Z,1020.12
2018-02-17T02:38:23.732Z,1020.15
2018-02-17T02:39:23.724Z,1020.18
2018-02-17T02:40:23.713Z,1020.12
2018-02-17T02:41:23.704Z,1020.14
2018-02-17T02:42:23.691Z,1020.16
2018-02-17T02:43:23.679Z,1020.16
2018-02-17T02:44:23.668Z,1020.17
2018-02-17T02:45:23.656Z,1020.12
2018-02-17T02:46:23.645Z,1020.16
2018-02-17T02:47:23.629Z,1020.17
2018-02-17T02:48:23.624Z,1020.17
2018-02-17T02:49:23.620Z,1020.16
2018-02-17T02:50:23.594Z,1020.12
2018-02-17T02:51:23.582Z,1020.09
2018-02-17T02:52:23.570Z,1020.13
2018-02-17T02:53:23.560Z,1020.10
2018-02-17T02:54:23.548Z,1020.08
2018-02-17T02:55:23.541Z,1020.05
2018-02-17T02:56:23.528Z,1020.05
2018-02-17T02:57:23.517Z,1020.02
2018-02-17T02:58:23.507Z,1020.05
2018-02-17T02:59:23.495Z,1020.05
2018-02-17T03:00:23.483Z,1020.01
2018-02-17T03:01:23.472Z,1020.03
2018-02-17T03:02:23.462Z,1020.02
2018-02-17T03:03:23.445Z,1019.95
2018-02-17T03:04:23.442Z,1019.93
2018-02-17T03:05:23.422Z,1019.90
2018-02-17T03:06:23.411Z,1019.94
2018-02-17T03:07:23.398Z,1019.92
2018-02-17T03:08:23.387Z,1019.93
2018-02-17T03:09:23.376Z,1019.88
2018-02-17T03:10:23.363Z,1019.88
2018-02-17T03:11:23.356Z,1019.87
2018-02-17T03:12:23.344Z,1019.91
2018-02-17T03:13:23.334Z,1019.84
2018-02-17T03:14:23.322Z,1019.90
2018-02-17T03:15:23.310Z,1019.90
2018-02-17T03:16:23.299Z,1019.88
2018-02-17T03:17:23.287Z,1019.83
2018-02-17T03:18:23.280Z,1019.79
2018-02-17T03:19:23.259Z,1019.81
2018-02-17T03:20:23.248Z,1019.78
2018-02-17T03:21:23.236Z,1019.75
2018-02-17T03:22:23.225Z,1019.69
2018-02-17T03:23:23.214Z,1019.72
2018-02-17T03:24:23.202Z,1019.67
2018-02-17T03:25:23.191Z,1019.65
2018-02-17T03:26:23.180Z,1019.68
2018-02-17T03:27:23.176Z,1019.67
2018-02-17T03:28:23.161Z,1019.67
2018-02-17T03:29:23.150Z,1019.67
2018-02-17T03:30:23.140Z,1019.64
2018-02-17T03:31:23.124Z,1019.61
2018-02-17T03:32:23.111Z,1019.69
2018-02-17T03:33:23.100Z,1019.62
2018-02-17T03:34:23.089Z,1019.63
2018-02-17T03:35:23.082Z,1019.63
2018-02-17T03:36:23.070Z,1019.58
2018-02-17T03:37:23.059Z,1019.58
2018-02-17T03:38:23.048Z,1019.56
2018-02-17T03:39:23.036Z,1019.55
2018-02-17T03:40:23.024Z,1019.55
2018-02-17T03:41:23.012Z,1019.50
2018-02-17T03:42:23.004Z,1019.50
2018-02-17T03:43:22.986Z,1019.52
2018-02-17T03:44:22.975Z,1019.48
2018-02-17T03:45:22.963Z,1019.52
2018-02-17T03:46:22.953Z,1019.44
2018-02-17T03:47:22.940Z,1019.49
2018-02-17T03:48:22.928Z,1019.47
2018-02-17T03:49:22.918Z,1019.41
2018-02-17T03:50:22.906Z,1019.49
2018-02-17T03:51:22.898Z,1019.48
2018-02-17T03:52:22.887Z,1019.44
2018-02-17T03:53:22.877Z,1019.49
2018-02-17T03:54:22.864Z,1019.47
2018-02-17T03:55:22.852Z,1019.46
2018-02-17T03:56:22.842Z,1019.44
2018-02-17T03:57:22.830Z,1019.43
2018-02-17T03:58:22.819Z,1019.36
2018-02-17T03:59:22.802Z,1019.33
2018-02-17T04:00:22.791Z,1019.31
2018-02-17T04:01:22.780Z,1019.25
2018-02-17T04:02:22.768Z,1019.24
2018-02-17T04:03:22.756Z,1019.17
2018-02-17T04:04:22.743Z,1019.24
2018-02-17T04:05:22.734Z,1019.23
2018-02-17T04:06:22.722Z,1019.20
2018-02-17T04:07:22.716Z,1019.19
2018-02-17T04:08:22.707Z,1019.16
2018-02-17T04:09:22.692Z,1019.14
2018-02-17T04:10:22.681Z,1019.22
2018-02-17T04:11:22.668Z,1019.17
2018-02-17T04:12:22.657Z,1019.20
2018-02-17T04:13:22.646Z,1019.17
2018-02-17T04:14:22.635Z,1019.17
2018-02-17T04:15:22.618Z,1019.13
2018-02-17T04:16:22.607Z,1019.12
2018-02-17T04:17:22.596Z,1019.09
2018-02-17T04:18:22.585Z,1019.09
2018-02-17T04:19:22.574Z,1019.09
2018-02-17T04:20:22.561Z,1019.11
2018-02-17T04:21:22.554Z,1019.13
2018-02-17T04:22:22.539Z,1019.17
2018-02-17T04:23:22.530Z,1019.17
2018-02-17T04:24:22.523Z,1019.20
2018-02-17T04:25:22.506Z,1019.22
2018-02-17T04:26:22.496Z,1019.22
2018-02-17T04:27:22.484Z,1019.24
2018-02-17T04:28:22.500Z,1019.18
2018-02-17T04:29:22.460Z,1019.14
2018-02-17T04:30:22.450Z,1019.15
2018-02-17T04:31:22.434Z,1019.13
2018-02-17T04:32:22.423Z,1019.17
2018-02-17T04:33:22.411Z,1019.14
2018-02-17T04:34:22.400Z,1019.16
2018-02-17T04:35:22.392Z,1019.13
2018-02-17T04:36:22.381Z,1019.14
2018-02-17T04:37:22.369Z,1019.10
2018-02-17T04:38:22.358Z,1019.10
2018-02-17T04:39:22.342Z,1019.06
2018-02-17T04:40:22.331Z,1019.04
2018-02-17T04:41:22.320Z,1019.06
2018-02-17T04:42:22.308Z,1018.99
2018-02-17T04:43:22.296Z,1019.01
2018-02-17T04:44:22.285Z,1018.98
2018-02-17T04:45:22.273Z,1018.95
2018-02-17T04:46:22.262Z,1018.92
2018-02-17T04:47:22.254Z,1018.87
2018-02-17T04:48:22.243Z,1018.87
2018-02-17T04:49:22.231Z,1018.84
2018-02-17T04:50:22.223Z,1018.83
2018-02-17T04:51:22.208Z,1018.79
2018-02-17T04:52:22.196Z,1018.80
2018-02-17T04:53:22.185Z,1018.79
2018-02-17T04:54:22.174Z,1018.74
2018-02-17T04:55:22.157Z,1018.73
2018-02-17T04:56:22.146Z,1018.74
2018-02-17T04:57:22.134Z,1018.72
2018-02-17T04:58:22.122Z,1018.75
2018-02-17T04:59:22.113Z,1018.73
2018-02-17T05:00:22.102Z,1018.77
2018-02-17T05:01:22.087Z,1018.75
2018-02-17T05:02:22.076Z,1018.81
2018-02-17T05:03:22.068Z,1018.78
2018-02-17T05:04:22.057Z,1018.78
2018-02-17T05:05:22.045Z,1018.77
2018-02-17T05:06:22.034Z,1018.77
2018-02-17T05:07:22.021Z,1018.76
2018-02-17T05:08:22.009Z,1018.72
2018-02-17T05:09:21.998Z,1018.70
2018-02-17T05:10:21.986Z,1018.68
2018-02-17T05:11:21.975Z,1018.64
2018-02-17T05:12:21.960Z,1018.59
2018-02-17T05:13:21.947Z,1018.59
2018-02-17T05:14:21.935Z,1018.59
2018-02-17T05:15:21.928Z,1018.53
2018-02-17T05:16:21.912Z,1018.55
2018-02-17T05:17:21.901Z,1018.52
2018-02-17T05:18:21.890Z,1018.53
2018-02-17T05:19:21.881Z,1018.46
2018-02-17T05:20:21.870Z,1018.47
2018-02-17T05:21:21.857Z,1018.50
2018-02-17T05:22:21.847Z,1018.47
2018-02-17T05:23:21.835Z,1018.50
2018-02-17T05:24:21.824Z,1018.51
2018-02-17T05:25:21.812Z,1018.49
2018-02-17T05:26:21.800Z,1018.48
2018-02-17T05:27:21.787Z,1018.48
2018-02-17T05:28:21.773Z,1018.48
2018-02-17T05:29:21.764Z,1018.50
2018-02-17T05:30:21.751Z,1018.48
2018-02-17T05:31:21.738Z,1018.52
2018-02-17T05:32:21.726Z,1018.53
2018-02-17T05:33:21.715Z,1018.53
2018-02-17T05:34:21.704Z,1018.49
2018-02-17T05:35:21.695Z,1018.45
2018-02-17T05:36:21.684Z,1018.55
2018-02-17T05:37:21.672Z,1018.56
2018-02-17T05:38:21.662Z,1018.57
2018-02-17T05:39:21.646Z,1018.52
2018-02-17T05:40:21.634Z,1018.56
2018-02-17T05:41:21.622Z,1018.55
2018-02-17T05:42:21.611Z,1018.53
2018-02-17T05:43:21.603Z,1018.58
2018-02-17T05:44:21.592Z,1018.60
2018-02-17T05:45:21.582Z,1018.62
2018-02-17T05:46:21.570Z,1018.56
2018-02-17T05:47:21.556Z,1018.57
2018-02-17T05:48:21.545Z,1018.67
2018-02-17T05:49:21.534Z,1018.66
2018-02-17T05:50:21.523Z,1018.67
2018-02-17T05:51:21.507Z,1018.63
2018-02-17T05:52:21.501Z,1018.69
2018-02-17T05:53:21.485Z,1018.70
2018-02-17T05:54:21.473Z,1018.67
2018-02-17T05:55:21.462Z,1018.70
2018-02-17T05:56:21.450Z,1018.67
2018-02-17T05:57:21.439Z,1018.63
2018-02-17T05:58:21.428Z,1018.67
2018-02-17T05:59:21.419Z,1018.65
2018-02-17T06:00:21.408Z,1018.68
2018-02-17T06:01:21.397Z,1018.64
2018-02-17T06:02:21.387Z,1018.68
2018-02-17T06:03:21.375Z,1018.62
2018-02-17T06:04:21.363Z,1018.62
2018-02-17T06:05:21.353Z,1018.58
2018-02-17T06:06:21.341Z,1018.64
2018-02-17T06:07:21.325Z,1018.56
2018-02-17T06:08:21.315Z,1018.54
2018-02-17T06:09:21.303Z,1018.51
2018-02-17T06:10:21.292Z,1018.47
2018-02-17T06:11:21.282Z,1018.46
2018-02-17T06:12:21.269Z,1018.46
2018-02-17T06:13:21.258Z,1018.49
2018-02-17T06:14:21.247Z,1018.47
2018-02-17T06:15:21.240Z,1018.47
2018-02-17T06:16:21.229Z,1018.52
2018-02-17T06:17:21.217Z,1018.50
2018-02-17T06:18:21.206Z,1018.50
2018-02-17T06:19:21.194Z,1018.46
2018-02-17T06:20:21.184Z,1018.44
2018-02-17T06:21:21.172Z,1018.45
2018-02-17T06:22:21.160Z,1018.36
2018-02-17T06:23:21.146Z,1018.34
2018-02-17T06:24:21.135Z,1018.30
2018-02-17T06:25:21.123Z,1018.22
2018-02-17T06:26:21.113Z,1018.25
2018-02-17T06:27:21.100Z,1018.21
2018-02-17T06:28:21.089Z,1018.16
2018-02-17T06:29:21.078Z,1018.08
2018-02-17T06:30:21.070Z,1018.05
2018-02-17T06:31:21.061Z,1018.07
2018-02-17T06:32:21.048Z,1018.05
2018-02-17T06:33:21.037Z,1018.01
2018-02-17T06:34:21.025Z,1018.03
2018-02-17T06:35:21.014Z,1018.01
2018-02-17T06:36:21.003Z,1018.00
2018-02-17T06:37:20.991Z,1018.04
2018-02-17T06:38:20.980Z,1017.98
2018-02-17T06:39:20.965Z,1017.95
2018-02-17T06:40:20.953Z,1018.00
2018-02-17T06:41:20.983Z,1018.02
2018-02-17T06:42:20.931Z,1018.03
2018-02-17T06:43:20.923Z,1018.04
2018-02-17T06:44:20.911Z,1018.00
2018-02-17T06:45:20.900Z,1018.01
2018-02-17T06:46:20.890Z,1018.03
2018-02-17T06:47:20.873Z,1018.07
2018-02-17T06:48:20.862Z,1018.05
2018-02-17T06:49:20.852Z,1018.07
2018-02-17T06:50:20.841Z,1018.10
2018-02-17T06:51:20.828Z,1018.16
2018-02-17T06:52:20.819Z,1018.14
2018-02-17T06:53:20.807Z,1018.15
2018-02-17T06:54:20.796Z,1018.13
2018-02-17T06:55:20.787Z,1018.15
2018-02-17T06:56:20.777Z,1018.09
2018-02-17T06:57:20.765Z,1018.08
2018-02-17T06:58:20.755Z,1018.06
2018-02-17T06:59:20.743Z,1018.01
2018-02-17T07:00:20.732Z,1018.10
2018-02-17T07:01:20.720Z,1018.08
2018-02-17T07:02:20.710Z,1018.01
2018-02-17T07:03:20.693Z,1018.07
2018-02-17T07:04:20.683Z,1018.02
2018-02-17T07:05:20.671Z,1018.04
2018-02-17T07:06:20.664Z,1018.02
2018-02-17T07:07:20.652Z,1018.07
2018-02-17T07:08:20.638Z,1018.02
2018-02-17T07:09:20.628Z,1018.05
2018-02-17T07:10:20.616Z,1018.00
2018-02-17T07:11:20.609Z,1018.00
2018-02-17T07:12:20.598Z,1017.99
2018-02-17T07:13:20.587Z,1018.01
2018-02-17T07:14:20.577Z,1017.94
2018-02-17T07:15:20.563Z,1018.00
2018-02-17T07:16:20.554Z,1018.02
2018-02-17T07:17:20.543Z,1018.05
2018-02-17T07:18:20.535Z,1018.03
2018-02-17T07:19:20.517Z,1018.05
2018-02-17T07:20:20.506Z,1018.05
2018-02-17T07:21:20.495Z,1017.99
2018-02-17T07:22:20.485Z,1018.00
2018-02-17T07:23:20.472Z,1018.00
2018-02-17T07:24:20.461Z,1017.97
2018-02-17T07:25:20.452Z,1017.94
2018-02-17T07:26:20.441Z,1017.94
2018-02-17T07:27:20.462Z,1017.91
2018-02-17T07:28:20.423Z,1017.96
2018-02-17T07:29:20.412Z,1018.01
2018-02-17T07:30:20.401Z,1017.93
2018-02-17T07:31:20.390Z,1017.95
2018-02-17T07:32:20.379Z,1017.93
2018-02-17T07:33:20.368Z,1017.92
2018-02-17T07:34:20.357Z,1017.87
2018-02-17T07:35:20.342Z,1017.91
2018-02-17T07:36:20.331Z,1017.85
2018-02-17T07:37:20.321Z,1017.89
2018-02-17T07:38:20.310Z,1017.87
2018-02-17T07:39:20.298Z,1017.84
2018-02-17T07:40:20.318Z,1017.84
2018-02-17T07:41:20.277Z,1017.90
2018-02-17T07:42:20.267Z,1017.88
2018-02-17T07:43:20.260Z,1017.89
2018-02-17T07:44:20.249Z,1017.91
2018-02-17T07:45:20.239Z,1017.95
2018-02-17T07:46:20.228Z,1017.95
2018-02-17T07:47:20.216Z,1017.94
2018-02-17T07:48:20.206Z,1017.87
2018-02-17T07:49:20.196Z,1017.91
2018-02-17T07:50:20.185Z,1017.88
2018-02-17T07:51:20.170Z,1017.96
2018-02-17T07:52:20.159Z,1017.95
2018-02-17T07:53:20.149Z,1017.91
2018-02-17T07:54:20.141Z,1017.95
2018-02-17T07:55:20.130Z,1017.95
2018-02-17T07:56:20.117Z,1017.98
2018-02-17T07:57:20.107Z,1018.02
2018-02-17T07:58:20.097Z,1018.03
2018-02-17T07:59:20.089Z,1018.01
2018-02-17T08:00:20.079Z,1018.01
2018-02-17T08:01:20.068Z,1018.02
2018-02-17T08:02:20.058Z,1017.99
2018-02-17T08:03:20.047Z,1017.99
2018-02-17T08:04:20.036Z,1018.02
2018-02-17T08:05:20.027Z,1018.06
2018-02-17T08:06:20.017Z,1018.03
2018-02-17T08:07:20.001Z,1018.03
2018-02-17T08:08:19.992Z,1018.06
2018-02-17T08:09:19.981Z,1018.06
2018-02-17T08:10:19.973Z,1018.09
2018-02-17T08:11:19.960Z,1018.05
2018-02-17T08:12:19.949Z,1018.07
2018-02-17T08:13:19.940Z,1018.06
2018-02-17T08:14:19.933Z,1018.08
2018-02-17T08:15:19.923Z,1018.02
2018-02-17T08:16:19.915Z,1018.01
2018-02-17T08:17:19.902Z,1018.09
2018-02-17T08:18:19.892Z,1018.05
2018-02-17T08:19:19.884Z,1018.05
2018-02-17T08:20:19.870Z,1018.07
2018-02-17T08:21:19.865Z,1018.06
2018-02-17T08:22:19.851Z,1018.06
2018-02-17T08:23:19.835Z,1018.07
2018-02-17T08:24:19.825Z,1018.10
2018-02-17T08:25:19.816Z,1018.05
2018-02-17T08:26:19.806Z,1018.02
2018-02-17T08:27:19.795Z,1018.06
2018-02-17T08:28:19.785Z,1018.06
2018-02-17T08:29:19.775Z,1018.07
2018-02-17T08:30:19.765Z,1018.04
2018-02-17T08:31:19.759Z,1018.01
2018-02-17T08:32:19.749Z,1018.03
2018-02-17T08:33:19.740Z,1018.02
2018-02-17T08:34:19.729Z,1018.07
2018-02-17T08:35:19.718Z,1018.07
2018-02-17T08:36:19.708Z,1018.02
2018-02-17T08:37:19.699Z,1018.06
2018-02-17T08:38:19.688Z,1018.08
2018-02-17T08:39:19.674Z,1018.07
2018-02-17T08:40:19.664Z,1018.07
2018-02-17T08:41:19.658Z,1018.11
2018-02-17T08:42:19.645Z,1018.09
2018-02-17T08:43:19.634Z,1018.14
2018-02-17T08:44:19.625Z,1018.12
2018-02-17T08:45:19.615Z,1018.04
2018-02-17T08:46:19.609Z,1018.08
2018-02-17T08:47:19.600Z,1018.10
2018-02-17T08:48:19.591Z,1018.08
2018-02-17T08:49:19.581Z,1018.07
2018-02-17T08:50:19.572Z,1018.11
2018-02-17T08:51:19.558Z,1018.12
2018-02-17T08:52:19.548Z,1018.11
2018-02-17T08:53:19.542Z,1018.12
2018-02-17T08:54:19.533Z,1018.05
2018-02-17T08:55:19.524Z,1018.09
2018-02-17T08:56:19.515Z,1018.14
2018-02-17T08:57:19.507Z,1018.11
2018-02-17T08:58:19.498Z,1018.08
2018-02-17T08:59:19.488Z,1018.09
2018-02-17T09:00:19.479Z,1018.15
2018-02-17T09:01:19.470Z,1018.08
2018-02-17T09:02:19.461Z,1018.10
2018-02-17T09:03:19.447Z,1018.07
2018-02-17T09:04:19.439Z,1018.06
2018-02-17T09:05:19.430Z,1018.08
2018-02-17T09:06:19.422Z,1018.03
2018-02-17T09:07:19.413Z,1018.03
2018-02-17T09:08:19.404Z,1018.01
2018-02-17T09:09:19.396Z,1018.05
2018-02-17T09:10:19.390Z,1017.97
2018-02-17T09:11:19.384Z,1017.95
2018-02-17T09:12:19.374Z,1017.96
2018-02-17T09:13:19.366Z,1017.94
2018-02-17T09:14:19.362Z,1017.94
2018-02-17T09:15:19.350Z,1017.96
2018-02-17T09:16:19.341Z,1017.97
2018-02-17T09:17:19.332Z,1018.02
2018-02-17T09:18:19.325Z,1017.96
2018-02-17T09:19:19.312Z,1017.97
2018-02-17T09:20:19.323Z,1017.97
2018-02-17T09:21:19.296Z,1017.97
2018-02-17T09:22:19.288Z,1017.97
2018-02-17T09:23:19.279Z,1017.96
2018-02-17T09:24:19.270Z,1018.01
2018-02-17T09:25:19.263Z,1018.04
2018-02-17T09:26:19.256Z,1018.02
2018-02-17T09:27:19.251Z,1017.99
2018-02-17T09:28:19.243Z,1018.06
2018-02-17T09:29:19.235Z,1018.07
2018-02-17T09:30:19.227Z,1018.10
2018-02-17T09:31:19.218Z,1018.10
2018-02-17T09:32:19.210Z,1018.07
2018-02-17T09:33:19.202Z,1018.11
2018-02-17T09:34:19.195Z,1018.14
2018-02-17T09:35:19.182Z,1018.14
2018-02-17T09:36:19.175Z,1018.14
2018-02-17T09:37:19.166Z,1018.14
2018-02-17T09:38:19.160Z,1018.16
2018-02-17T09:39:19.150Z,1018.12
2018-02-17T09:40:19.144Z,1018.21
2018-02-17T09:41:19.137Z,1018.23
2018-02-17T09:42:19.130Z,1018.21
2018-02-17T09:43:19.126Z,1018.25
2018-02-17T09:44:19.119Z,1018.26
2018-02-17T09:45:19.114Z,1018.30
2018-02-17T09:46:19.105Z,1018.27
2018-02-17T09:47:19.097Z,1018.30
2018-02-17T09:48:19.091Z,1018.31
2018-02-17T09:49:19.084Z,1018.31
2018-02-17T09:50:19.079Z,1018.25
2018-02-17T09:51:19.066Z,1018.31
2018-02-17T09:52:19.059Z,1018.30
2018-02-17T09:53:19.054Z,1018.34
2018-02-17T09:54:19.047Z,1018.34
2018-02-17T09:55:19.045Z,1018.34
2018-02-17T09:56:19.038Z,1018.31
2018-02-17T09:57:19.032Z,1018.31
2018-02-17T09:58:19.026Z,1018.29
2018-02-17T09:59:19.014Z,1018.31
2018-02-17T10:00:19.008Z,1018.33
2018-02-17T10:01:19.002Z,1018.32
2018-02-17T10:02:19.008Z,1018.32
2018-02-17T10:03:18.990Z,1018.34
2018-02-17T10:04:18.984Z,1018.32
2018-02-17T10:05:18.979Z,1018.25
2018-02-17T10:06:18.972Z,1018.28
2018-02-17T10:07:18.971Z,1018.27
2018-02-17T10:08:18.965Z,1018.29
2018-02-17T10:09:18.959Z,1018.29
2018-02-17T10:10:18.963Z,1018.26
2018-02-17T10:11:18.983Z,1018.19
2018-02-17T10:12:18.942Z,1018.28
2018-02-17T10:13:18.937Z,1018.27
2018-02-17T10:14:18.931Z,1018.25
2018-02-17T10:15:18.924Z,1018.20
2018-02-17T10:16:18.918Z,1018.29
2018-02-17T10:17:18.914Z,1018.32
2018-02-17T10:18:18.906Z,1018.39
2018-02-17T10:19:18.899Z,1018.40
2018-02-17T10:20:18.895Z,1018.35
2018-02-17T10:21:18.893Z,1018.44
2018-02-17T10:22:18.885Z,1018.40
2018-02-17T10:23:18.883Z,1018.50
2018-02-17T10:24:18.878Z,1018.48
2018-02-17T10:25:18.874Z,1018.46
2018-02-17T10:26:18.869Z,1018.54
2018-02-17T10:27:18.863Z,1018.50
2018-02-17T10:28:18.858Z,1018.52
2018-02-17T10:29:18.854Z,1018.52
2018-02-17T10:30:18.850Z,1018.51
2018-02-17T10:31:18.837Z,1018.46
2018-02-17T10:32:18.835Z,1018.50
2018-02-17T10:33:18.829Z,1018.46
2018-02-17T10:34:18.825Z,1018.48
2018-02-17T10:35:18.819Z,1018.49
2018-02-17T10:36:18.814Z,1018.48
2018-02-17T10:37:18.810Z,1018.48
2018-02-17T10:38:18.806Z,1018.48
2018-02-17T10:39:18.808Z,1018.50
2018-02-17T10:40:18.800Z,1018.55
2018-02-17T10:41:18.796Z,1018.50
2018-02-17T10:42:18.791Z,1018.54
2018-02-17T10:43:18.791Z,1018.58
2018-02-17T10:44:18.781Z,1018.50
2018-02-17T10:45:18.777Z,1018.54
2018-02-17T10:46:18.772Z,1018.52
2018-02-17T10:47:18.762Z,1018.51
2018-02-17T10:48:18.757Z,1018.50
2018-02-17T10:49:18.753Z,1018.49
2018-02-17T10:50:18.749Z,1018.47
2018-02-17T10:51:18.743Z,1018.51
2018-02-17T10:52:18.738Z,1018.55
2018-02-17T10:53:18.734Z,1018.52
2018-02-17T10:54:18.729Z,1018.61
2018-02-17T10:55:18.727Z,1018.57
2018-02-17T10:56:18.727Z,1018.59
2018-02-17T10:57:18.718Z,1018.54
2018-02-17T10:58:18.713Z,1018.53
2018-02-17T10:59:18.707Z,1018.60
2018-02-17T11:00:18.698Z,1018.62
2018-02-17T11:01:18.693Z,1018.58
2018-02-17T11:02:18.688Z,1018.59
2018-02-17T11:03:18.688Z,1018.63
2018-02-17T11:04:18.683Z,1018.57
2018-02-17T11:05:18.680Z,1018.62
2018-02-17T11:06:18.693Z,1018.65
2018-02-17T11:07:18.674Z,1018.61
2018-02-17T11:08:18.673Z,1018.66
2018-02-17T11:09:18.667Z,1018.62
2018-02-17T11:10:18.664Z,1018.62
2018-02-17T11:11:18.658Z,1018.59
2018-02-17T11:12:18.714Z,1018.55
2018-02-17T11:13:18.654Z,1018.54
2018-02-17T11:14:18.653Z,1018.56
2018-02-17T11:15:18.650Z,1018.51
2018-02-17T11:16:18.648Z,1018.51
2018-02-17T11:17:18.647Z,1018.50
2018-02-17T11:18:18.646Z,1018.45
2018-02-17T11:19:18.648Z,1018.50
2018-02-17T11:20:18.651Z,1018.47
2018-02-17T11:21:18.646Z,1018.45
2018-02-17T11:22:18.644Z,1018.44
2018-02-17T11:23:18.643Z,1018.50
2018-02-17T11:24:18.641Z,1018.47
2018-02-17T11:25:18.640Z,1018.46
2018-02-17T11:26:18.639Z,1018.47
2018-02-17T11:27:18.632Z,1018.40
2018-02-17T11:28:18.630Z,1018.44
2018-02-17T11:29:18.629Z,1018.43
2018-02-17T11:30:18.627Z,1018.46
2018-02-17T11:31:18.624Z,1018.37
2018-02-17T11:32:18.625Z,1018.39
2018-02-17T11:33:18.621Z,1018.34
2018-02-17T11:34:18.618Z,1018.31
2018-02-17T11:35:18.619Z,1018.35
2018-02-17T11:36:18.617Z,1018.32
2018-02-17T11:37:18.613Z,1018.39
2018-02-17T11:38:18.613Z,1018.38
2018-02-17T11:39:18.608Z,1018.38
2018-02-17T11:40:18.605Z,1018.36
2018-02-17T11:41:18.603Z,1018.28
2018-02-17T11:42:18.599Z,1018.24
2018-02-17T11:43:18.590Z,1018.25
2018-02-17T11:44:18.588Z,1018.25
2018-02-17T11:45:18.585Z,1018.38
2018-02-17T11:46:18.582Z,1018.33
2018-02-17T11:47:18.577Z,1018.35
2018-02-17T11:48:18.575Z,1018.34
2018-02-17T11:49:18.573Z,1018.30
2018-02-17T11:50:18.570Z,1018.34
2018-02-17T11:51:18.568Z,1018.33
2018-02-17T11:52:18.564Z,1018.26
2018-02-17T11:53:18.562Z,1018.23
2018-02-17T11:54:18.556Z,1018.19
2018-02-17T11:55:18.553Z,1018.18
2018-02-17T11:56:18.547Z,1018.18
2018-02-17T11:57:18.545Z,1018.15
2018-02-17T11:58:18.544Z,1018.19
2018-02-17T11:59:18.531Z,1018.21
2018-02-17T12:00:18.524Z,1018.21
2018-02-17T12:01:18.518Z,1018.20
2018-02-17T12:02:18.513Z,1018.33
2018-02-17T12:03:18.512Z,1018.30
2018-02-17T12:04:18.509Z,1018.24
2018-02-17T12:05:18.502Z,1018.25